Local Weather Ingen bokad jour idag Friday 24th of February
Flygplats METAR TAF
Airport METAR TAF
ESSL - Linköping241650Z 28013KT 250V320 CAVOK M00/M07 Q0999 RWY 11 CLEAR AND DRY 0-10 PCT BA GOOD= 241430Z 2415/2423 29015G25KT CAVOK=
ESSP - Norrköping241650Z 27012KT CAVOK M01/M09 Q0999 RWY 27 CLEAR AND DRY 51-100 PCT BA GOOD= 241430Z 2415/2422 29015G27KT CAVOK=
ESGJ - Jönköping241650Z 28008KT CAVOK M01/M11 Q1001 RWY 01 CLEAR AND DRY 51-100 PCT FCT 0.70= 241430Z 2415/2423 28007KT CAVOK=
ESKN - Skavsta241650Z 28012KT CAVOK M01/M09 Q0997 RWY 26 CLEAR AND DRY 51-100 PCT BA GOOD= 241130Z 2412/2512 29014G25KT CAVOK=
ESSV - Visby241650Z 29021KT CAVOK 01/M08 Q0997 RWY 21 CLEAR AND DRY 51-100 PCT FCT 0.85= 241430Z 2415/2422 30015G30KT CAVOK=
ESGG - Göteborg241650Z 28005KT CAVOK M02/M08 Q1003 RWY 21 DAMP 51-100 PCT BA GOOD= 241130Z 2412/2512 26006KT CAVOK BECMG 2416/2418 32010KT BECMG 2423/2501 VRB02KT=